createdAt,value
2022-12-25T00:01:32.211Z,23.08
2022-12-25T00:03:59.189Z,34.88
2022-12-25T00:06:26.477Z,28.08
2022-12-25T00:08:53.331Z,19.42
2022-12-25T00:11:21.177Z,27.55
2022-12-25T00:13:48.394Z,23.42
2022-12-25T00:16:22.724Z,18.60
2022-12-25T00:18:51.417Z,17.88
2022-12-25T00:21:21.067Z,19.33
2022-12-25T00:23:52.939Z,28.70
2022-12-25T00:26:19.711Z,17.63
2022-12-25T00:28:46.516Z,20.65
2022-12-25T00:31:17.628Z,23.40
2022-12-25T00:33:47.603Z,18.58
2022-12-25T00:36:17.603Z,24.17
2022-12-25T00:38:45.407Z,27.95
2022-12-25T00:41:17.232Z,19.30
2022-12-25T00:43:44.429Z,22.90
2022-12-25T00:46:13.248Z,22.13
2022-12-25T00:48:41.722Z,14.85
2022-12-25T00:51:11.722Z,19.80
2022-12-25T00:53:38.534Z,36.88
2022-12-25T00:56:07.643Z,23.13
2022-12-25T00:58:35.464Z,25.50
2022-12-25T01:01:04.080Z,18.40
2022-12-25T01:03:31.421Z,22.95
2022-12-25T01:06:03.614Z,23.08
2022-12-25T01:08:33.463Z,25.67
2022-12-25T01:11:06.841Z,20.10
2022-12-25T01:13:36.901Z,23.65
2022-12-25T01:16:11.262Z,19.73
2022-12-25T01:18:39.134Z,28.42
2022-12-25T01:21:12.870Z,19.98
2022-12-25T01:23:39.651Z,20.75
2022-12-25T01:26:09.829Z,25.30
2022-12-25T01:28:37.805Z,22.23
2022-12-25T01:31:05.684Z,23.98
2022-12-25T01:33:32.475Z,18.17
2022-12-25T01:35:59.432Z,18.85
2022-12-25T01:38:26.219Z,22.05
2022-12-25T01:40:53.047Z,22.10
2022-12-25T01:43:28.512Z,22.50
2022-12-25T01:45:55.754Z,24.15
2022-12-25T01:48:34.107Z,23.63
2022-12-25T01:51:06.921Z,16.73
2022-12-25T01:53:34.026Z,27.52
2022-12-25T01:56:07.186Z,26.25
2022-12-25T01:58:35.254Z,22.92
2022-12-25T02:01:05.372Z,18.02
2022-12-25T02:03:32.342Z,24.05
2022-12-25T02:06:01.222Z,18.30
2022-12-25T02:08:28.487Z,23.83
2022-12-25T02:10:55.324Z,28.65
2022-12-25T02:13:22.414Z,19.05
2022-12-25T02:16:15.601Z,24.30
2022-12-25T02:19:06.111Z,19.55
2022-12-25T02:21:59.515Z,17.05
2022-12-25T02:25:10.988Z,15.73
2022-12-25T02:27:52.302Z,19.05
2022-12-25T02:30:19.474Z,23.60
2022-12-25T02:33:31.710Z,22.45
2022-12-25T02:36:07.202Z,20.98
2022-12-25T02:39:04.548Z,13.88
2022-12-25T02:41:39.898Z,18.63
2022-12-25T02:44:35.030Z,15.98
2022-12-25T02:47:25.305Z,19.60
2022-12-25T02:50:13.522Z,24.67
2022-12-25T02:53:02.386Z,17.95
2022-12-25T02:55:57.299Z,24.48
2022-12-25T02:58:46.694Z,17.60
2022-12-25T03:01:41.200Z,20.33
2022-12-25T03:04:37.879Z,14.30
2022-12-25T03:07:18.440Z,18.10
2022-12-25T03:10:19.532Z,22.70
2022-12-25T03:12:55.713Z,14.45
2022-12-25T03:15:42.217Z,11.70
2022-12-25T03:18:20.236Z,11.00
2022-12-25T03:21:05.853Z,16.98
2022-12-25T03:23:56.065Z,15.52
2022-12-25T03:26:43.265Z,6.85
2022-12-25T03:29:10.465Z,10.57
2022-12-25T03:31:46.222Z,15.75
2022-12-25T03:34:40.730Z,10.93
2022-12-25T03:37:36.661Z,17.70
2022-12-25T03:40:42.895Z,8.55
2022-12-25T03:43:51.393Z,12.57
2022-12-25T03:46:43.294Z,13.02
2022-12-25T03:49:43.611Z,17.52
2022-12-25T03:52:34.562Z,12.88
2022-12-25T03:55:28.348Z,16.88
2022-12-25T03:58:14.075Z,15.57
2022-12-25T04:00:59.503Z,12.60
2022-12-25T04:03:55.463Z,10.60
2022-12-25T04:06:41.079Z,10.77
2022-12-25T04:09:26.244Z,8.85
2022-12-25T04:12:11.445Z,17.67
2022-12-25T04:14:56.687Z,10.82
2022-12-25T04:17:42.006Z,17.35
2022-12-25T04:20:27.993Z,13.20
2022-12-25T04:23:18.729Z,10.73
2022-12-25T04:26:03.977Z,12.07
2022-12-25T04:28:49.327Z,14.13
2022-12-25T04:31:34.627Z,9.95
2022-12-25T04:34:19.976Z,11.13
2022-12-25T04:36:46.753Z,10.00
2022-12-25T04:39:13.552Z,11.07
2022-12-25T04:41:40.359Z,11.82
2022-12-25T04:44:07.162Z,14.00
2022-12-25T04:46:34.035Z,13.65
2022-12-25T04:49:00.893Z,9.88
2022-12-25T04:51:27.718Z,10.82
2022-12-25T04:53:54.864Z,11.60
2022-12-25T04:56:22.502Z,11.52
2022-12-25T04:58:49.295Z,10.88
2022-12-25T05:01:17.089Z,9.52
2022-12-25T05:03:44.006Z,16.80
2022-12-25T05:06:11.589Z,13.85
2022-12-25T05:08:38.721Z,12.73
2022-12-25T05:11:09.237Z,10.57
2022-12-25T05:13:36.809Z,16.50
2022-12-25T05:16:17.452Z,16.17
2022-12-25T05:18:45.695Z,12.32
2022-12-25T05:21:12.975Z,11.88
2022-12-25T05:23:48.406Z,13.57
2022-12-25T05:26:19.118Z,12.57
2022-12-25T05:28:46.775Z,12.93
2022-12-25T05:31:13.695Z,12.65
2022-12-25T05:33:40.580Z,9.02
2022-12-25T05:36:10.649Z,9.68
2022-12-25T05:38:38.707Z,12.40
2022-12-25T05:41:06.088Z,11.90
2022-12-25T05:43:33.516Z,14.40
2022-12-25T05:46:06.871Z,12.95
2022-12-25T05:48:36.728Z,13.60
2022-12-25T05:51:10.522Z,10.43
2022-12-25T05:53:38.325Z,11.90
2022-12-25T05:56:08.214Z,13.50
2022-12-25T05:58:37.923Z,12.52
2022-12-25T06:01:20.330Z,13.15
2022-12-25T06:03:47.596Z,16.90
2022-12-25T06:06:15.594Z,18.08
2022-12-25T06:08:42.745Z,11.32
2022-12-25T06:11:12.532Z,10.38
2022-12-25T06:13:39.372Z,13.23
2022-12-25T06:16:09.059Z,9.35
2022-12-25T06:18:39.047Z,14.38
2022-12-25T06:21:08.814Z,12.23
2022-12-25T06:23:37.815Z,11.30
2022-12-25T06:26:11.337Z,14.13
2022-12-25T06:28:38.276Z,9.85
2022-12-25T06:31:18.637Z,9.95
2022-12-25T06:33:46.525Z,11.02
2022-12-25T06:36:18.785Z,11.10
2022-12-25T06:41:17.352Z,12.27
2022-12-25T06:43:48.411Z,11.10
2022-12-25T06:46:15.437Z,12.15
2022-12-25T06:48:49.383Z,13.98
2022-12-25T06:51:18.772Z,10.00
2022-12-25T06:53:46.845Z,10.25
2022-12-25T06:56:17.904Z,9.10
2022-12-25T06:58:47.510Z,10.00
2022-12-25T07:01:23.570Z,10.48
2022-12-25T07:03:55.463Z,13.00
2022-12-25T07:06:22.647Z,10.13
2022-12-25T07:08:49.556Z,8.50
2022-12-25T07:11:16.437Z,7.55
2022-12-25T07:13:43.320Z,9.43
2022-12-25T07:16:11.884Z,9.52
2022-12-25T07:18:40.103Z,12.80
2022-12-25T07:21:14.997Z,9.05
2022-12-25T07:23:43.519Z,13.98
2022-12-25T07:26:12.239Z,10.57
2022-12-25T07:28:39.378Z,10.60
2022-12-25T07:31:11.809Z,9.35
2022-12-25T07:33:38.896Z,13.35
2022-12-25T07:36:07.623Z,10.63
2022-12-25T07:38:40.269Z,13.38
2022-12-25T07:41:13.037Z,11.02
2022-12-25T07:43:40.753Z,9.25
2022-12-25T07:46:08.421Z,9.90
2022-12-25T07:48:36.498Z,11.88
2022-12-25T07:51:07.640Z,11.23
2022-12-25T07:53:36.237Z,9.95
2022-12-25T07:56:17.468Z,14.85
2022-12-25T07:58:45.836Z,14.10
2022-12-25T08:01:26.765Z,8.85
2022-12-25T08:04:00.348Z,10.02
2022-12-25T08:06:32.091Z,10.70
2022-12-25T08:09:09.134Z,14.43
2022-12-25T08:11:37.627Z,13.27
2022-12-25T08:14:09.229Z,11.35
2022-12-25T08:16:39.719Z,12.10
2022-12-25T08:19:06.637Z,15.73
2022-12-25T08:21:33.767Z,12.70
2022-12-25T08:24:00.598Z,12.25
2022-12-25T08:26:27.358Z,15.13
2022-12-25T08:28:54.114Z,10.02
2022-12-25T08:31:26.620Z,10.23
2022-12-25T08:33:56.796Z,11.68
2022-12-25T08:36:24.268Z,11.45
2022-12-25T08:38:53.473Z,11.45
2022-12-25T08:41:23.063Z,11.75
2022-12-25T08:43:52.450Z,9.75
2022-12-25T08:46:20.276Z,11.18
2022-12-25T08:48:49.671Z,9.13
2022-12-25T08:51:20.841Z,8.80
2022-12-25T08:53:50.107Z,13.10
2022-12-25T08:56:18.452Z,9.82
2022-12-25T08:58:46.466Z,9.40
2022-12-25T09:01:13.683Z,11.65
2022-12-25T09:03:40.800Z,9.18
2022-12-25T09:06:14.650Z,8.80
2022-12-25T09:08:48.631Z,12.30
2022-12-25T09:11:19.547Z,11.63
2022-12-25T09:13:46.642Z,11.93
2022-12-25T09:16:17.932Z,9.90
2022-12-25T09:18:44.948Z,10.32
2022-12-25T09:21:14.203Z,11.90
2022-12-25T09:23:41.616Z,14.02
2022-12-25T09:26:14.222Z,10.23
2022-12-25T09:28:46.793Z,10.00
2022-12-25T09:31:17.436Z,6.55
2022-12-25T09:33:44.198Z,11.88
2022-12-25T09:36:11.129Z,11.30
2022-12-25T09:38:38.127Z,12.90
2022-12-25T09:41:50.373Z,9.52
2022-12-25T09:44:30.709Z,9.25
2022-12-25T09:47:12.961Z,8.68
2022-12-25T09:49:58.060Z,8.07
2022-12-25T09:52:48.846Z,10.95
2022-12-25T09:55:23.005Z,6.53
2022-12-25T09:57:57.963Z,9.27
2022-12-25T10:00:54.651Z,7.60
2022-12-25T10:03:27.130Z,11.60
2022-12-25T10:06:18.625Z,13.30
2022-12-25T10:09:10.431Z,13.80
2022-12-25T10:11:55.237Z,11.88
2022-12-25T10:14:41.551Z,8.35
2022-12-25T10:17:32.460Z,11.45
2022-12-25T10:20:40.571Z,9.93
2022-12-25T10:23:18.153Z,9.43
2022-12-25T10:25:46.470Z,9.73
2022-12-25T10:28:23.516Z,10.73
2022-12-25T10:30:53.354Z,7.57
2022-12-25T10:33:21.647Z,8.85
2022-12-25T10:35:48.935Z,8.77
2022-12-25T10:38:19.874Z,11.32
2022-12-25T10:41:05.672Z,12.50
2022-12-25T10:44:20.358Z,11.15
2022-12-25T10:46:58.177Z,9.95
2022-12-25T10:49:33.033Z,13.10
2022-12-25T10:52:00.363Z,8.27
2022-12-25T10:54:35.657Z,8.68
2022-12-25T10:57:17.669Z,12.73
2022-12-25T10:59:57.991Z,12.70
2022-12-25T11:02:41.068Z,9.38
2022-12-25T11:05:25.363Z,12.35
2022-12-25T11:07:55.924Z,16.45
2022-12-25T11:10:37.435Z,10.73
2022-12-25T11:13:23.139Z,8.43
2022-12-25T11:16:06.056Z,11.95
2022-12-25T11:18:56.185Z,12.30
2022-12-25T11:21:26.543Z,13.65
2022-12-25T11:24:19.400Z,16.52
2022-12-25T11:26:53.091Z,11.90
2022-12-25T11:29:50.372Z,10.48
2022-12-25T11:32:29.473Z,12.27
2022-12-25T11:34:59.273Z,12.07
2022-12-25T11:37:46.163Z,12.40
2022-12-25T11:40:40.850Z,12.13
2022-12-25T11:43:20.749Z,12.73
2022-12-25T11:46:21.567Z,12.82
2022-12-25T11:48:57.429Z,10.82
2022-12-25T11:51:33.369Z,15.07
2022-12-25T11:54:14.960Z,10.68
2022-12-25T11:56:42.624Z,15.77
2022-12-25T11:59:24.085Z,13.40
2022-12-25T12:02:01.317Z,15.02
2022-12-25T12:04:56.018Z,12.93
2022-12-25T12:07:30.322Z,13.10
2022-12-25T12:10:28.199Z,13.32
2022-12-25T12:12:59.987Z,15.30
2022-12-25T12:15:35.624Z,13.90
2022-12-25T12:18:26.390Z,15.40
2022-12-25T12:21:08.518Z,15.75
2022-12-25T12:23:56.624Z,15.38
2022-12-25T12:26:27.306Z,16.80
2022-12-25T12:29:01.348Z,17.15
2022-12-25T12:31:46.185Z,16.42
2022-12-25T12:37:11.297Z,18.10
2022-12-25T12:39:42.102Z,14.50
2022-12-25T12:42:26.036Z,17.70
2022-12-25T12:44:57.064Z,16.63
2022-12-25T12:47:44.069Z,17.08
2022-12-25T12:50:32.155Z,16.65
2022-12-25T12:53:00.803Z,19.67
2022-12-25T12:55:34.687Z,17.95
2022-12-25T12:58:05.652Z,16.75
2022-12-25T13:00:59.638Z,17.50
2022-12-25T13:04:04.295Z,15.23
2022-12-25T13:06:47.911Z,12.23
2022-12-25T13:10:03.770Z,16.05
2022-12-25T13:12:30.708Z,15.50
2022-12-25T13:14:58.786Z,17.35
2022-12-25T13:17:27.642Z,18.33
2022-12-25T13:20:00.253Z,21.60
2022-12-25T13:22:36.485Z,19.60
2022-12-25T13:25:17.333Z,19.33
2022-12-25T13:27:44.108Z,20.98
2022-12-25T13:30:20.317Z,21.98
2022-12-25T13:32:49.225Z,22.25
2022-12-25T13:35:18.075Z,17.70
2022-12-25T13:37:45.972Z,18.70
2022-12-25T13:40:38.893Z,17.83
2022-12-25T13:43:05.907Z,20.60
2022-12-25T13:45:34.919Z,20.15
2022-12-25T13:48:16.013Z,22.13
2022-12-25T13:50:48.311Z,22.95
2022-12-25T13:55:52.564Z,15.80
2022-12-25T13:58:28.739Z,18.52
2022-12-25T14:00:58.731Z,25.38
2022-12-25T14:03:40.660Z,21.70
2022-12-25T14:06:29.248Z,20.45
2022-12-25T14:08:58.722Z,18.23
2022-12-25T14:11:29.608Z,23.08
2022-12-25T14:14:06.508Z,18.92
2022-12-25T14:16:34.903Z,22.48
2022-12-25T14:19:02.815Z,21.70
2022-12-25T14:21:49.153Z,25.13
2022-12-25T14:24:18.160Z,18.83
2022-12-25T14:26:45.090Z,20.92
2022-12-25T14:29:19.101Z,18.45
2022-12-25T14:31:47.994Z,20.00
2022-12-25T14:34:25.072Z,18.67
2022-12-25T14:36:53.633Z,19.50
2022-12-25T14:39:30.463Z,20.20
2022-12-25T14:41:58.396Z,18.58
2022-12-25T14:44:34.899Z,19.13
2022-12-25T14:47:10.764Z,21.05
2022-12-25T14:49:40.016Z,21.40
2022-12-25T14:52:33.620Z,20.77
2022-12-25T14:55:04.825Z,22.90
2022-12-25T14:57:41.095Z,19.85
2022-12-25T15:00:34.977Z,22.10
2022-12-25T15:03:17.267Z,27.27
2022-12-25T15:05:44.295Z,27.95
2022-12-25T15:08:13.713Z,22.15
2022-12-25T15:13:29.601Z,23.67
2022-12-25T15:16:25.992Z,30.73
2022-12-25T15:18:54.526Z,22.88
2022-12-25T15:21:34.303Z,24.02
2022-12-25T15:24:01.149Z,26.13
2022-12-25T15:26:31.632Z,29.15
2022-12-25T15:28:59.119Z,30.40
2022-12-25T15:31:31.009Z,24.52
2022-12-25T15:34:01.934Z,26.30
2022-12-25T15:36:29.347Z,31.23
2022-12-25T15:38:57.008Z,31.10
2022-12-25T15:41:52.247Z,33.47
2022-12-25T15:44:20.198Z,28.65
2022-12-25T15:46:47.484Z,32.28
2022-12-25T15:49:15.396Z,32.15
2022-12-25T15:51:43.787Z,30.38
2022-12-25T15:54:11.411Z,29.90
2022-12-25T15:57:01.973Z,36.72
2022-12-25T15:59:28.933Z,33.58
2022-12-25T16:02:00.220Z,34.67
2022-12-25T16:04:31.265Z,33.10
2022-12-25T16:06:59.330Z,35.20
2022-12-25T16:09:27.528Z,45.03
2022-12-25T16:11:54.470Z,36.22
2022-12-25T16:14:21.865Z,36.55
2022-12-25T16:16:49.005Z,50.58
2022-12-25T16:19:15.916Z,38.03
2022-12-25T16:21:46.534Z,39.08
2022-12-25T16:24:14.244Z,42.03
2022-12-25T16:26:42.472Z,47.35
2022-12-25T16:29:10.032Z,41.78
2022-12-25T16:31:38.177Z,46.08
2022-12-25T16:34:07.525Z,48.03
2022-12-25T16:36:35.674Z,50.70
2022-12-25T16:39:04.450Z,43.75
2022-12-25T16:41:31.995Z,44.72
2022-12-25T16:43:58.815Z,48.78
2022-12-25T16:46:26.783Z,51.00
2022-12-25T16:48:55.124Z,53.35
2022-12-25T16:51:22.025Z,52.35
2022-12-25T16:53:48.879Z,53.38
2022-12-25T16:56:20.460Z,52.92
2022-12-25T16:58:47.909Z,39.80
2022-12-25T17:01:18.725Z,34.53
2022-12-25T17:03:48.573Z,38.20
2022-12-25T17:06:19.849Z,47.85
2022-12-25T17:08:47.033Z,44.75
2022-12-25T17:11:15.411Z,45.45
2022-12-25T17:13:47.595Z,44.40
2022-12-25T17:16:20.267Z,45.25
2022-12-25T17:18:47.478Z,58.45
2022-12-25T17:21:17.036Z,50.38
2022-12-25T17:23:45.128Z,62.17
2022-12-25T17:26:12.015Z,55.47
2022-12-25T17:28:38.743Z,49.83
2022-12-25T17:31:08.946Z,58.65
2022-12-25T17:33:38.025Z,60.40
2022-12-25T17:36:09.859Z,48.97
2022-12-25T17:38:37.163Z,49.08
2022-12-25T17:41:08.427Z,49.10
2022-12-25T17:43:41.296Z,52.55
2022-12-25T17:46:16.712Z,49.88
2022-12-25T17:48:44.475Z,46.85
2022-12-25T17:51:18.854Z,57.13
2022-12-25T17:53:48.955Z,53.28
2022-12-25T17:56:17.784Z,70.90
2022-12-25T17:58:49.365Z,57.22
2022-12-25T18:01:17.705Z,48.03
2022-12-25T18:03:46.609Z,55.47
2022-12-25T18:06:17.832Z,55.50
2022-12-25T18:08:46.783Z,52.92
2022-12-25T18:11:21.349Z,54.47
2022-12-25T18:13:52.238Z,56.67
2022-12-25T18:16:23.166Z,61.92
2022-12-25T18:18:52.514Z,59.10
2022-12-25T18:21:22.199Z,68.18
2022-12-25T18:23:50.396Z,80.70
2022-12-25T18:26:17.847Z,59.42
2022-12-25T18:28:44.813Z,79.60
2022-12-25T18:31:19.810Z,61.15
2022-12-25T18:33:47.472Z,55.35
2022-12-25T18:36:20.225Z,66.57
2022-12-25T18:38:49.183Z,52.67
2022-12-25T18:41:16.540Z,49.58
2022-12-25T18:43:52.186Z,43.78
2022-12-25T18:46:23.932Z,51.33
2022-12-25T18:48:51.673Z,55.33
2022-12-25T18:51:18.901Z,55.40
2022-12-25T18:53:46.050Z,56.13
2022-12-25T18:56:18.240Z,51.40
2022-12-25T18:58:47.593Z,61.25
2022-12-25T19:01:23.424Z,59.88
2022-12-25T19:03:52.597Z,60.63
2022-12-25T19:06:26.727Z,44.88
2022-12-25T19:08:55.762Z,50.60
2022-12-25T19:11:23.177Z,47.97
2022-12-25T19:13:50.283Z,42.58
2022-12-25T19:16:17.768Z,51.28
2022-12-25T19:18:45.647Z,53.05
2022-12-25T19:21:12.679Z,63.85
2022-12-25T19:23:40.376Z,57.35
2022-12-25T19:26:09.593Z,47.38
2022-12-25T19:28:38.264Z,65.85
2022-12-25T19:31:08.706Z,49.20
2022-12-25T19:33:41.270Z,48.25
2022-12-25T19:36:14.409Z,55.80
2022-12-25T19:38:41.343Z,59.83
2022-12-25T19:41:15.740Z,54.08
2022-12-25T19:43:45.582Z,49.72
2022-12-25T19:46:29.540Z,40.80
2022-12-25T19:48:57.237Z,47.90
2022-12-25T19:51:28.131Z,45.30
2022-12-25T19:53:56.340Z,50.72
2022-12-25T19:56:25.293Z,49.80
2022-12-25T19:58:52.702Z,46.17
2022-12-25T20:01:21.928Z,50.20
2022-12-25T20:03:49.404Z,48.10
2022-12-25T20:06:30.206Z,52.17
2022-12-25T20:09:05.395Z,53.65
2022-12-25T20:11:35.390Z,48.47
2022-12-25T20:14:02.514Z,52.05
2022-12-25T20:16:29.458Z,50.53
2022-12-25T20:18:57.793Z,56.47
2022-12-25T20:21:27.306Z,51.58
2022-12-25T20:23:54.539Z,58.08
2022-12-25T20:26:26.543Z,47.88
2022-12-25T20:28:53.660Z,47.55
2022-12-25T20:31:24.839Z,46.63
2022-12-25T20:33:51.640Z,56.15
2022-12-25T20:36:18.981Z,20.52
2022-12-25T20:38:45.859Z,46.80
2022-12-25T20:41:32.438Z,45.08
2022-12-25T20:43:59.984Z,45.45
2022-12-25T20:46:27.527Z,47.50
2022-12-25T20:48:54.562Z,45.55
2022-12-25T20:51:25.696Z,42.45
2022-12-25T20:53:54.073Z,37.22
2022-12-25T20:56:25.033Z,26.42
2022-12-25T21:01:26.716Z,40.85
2022-12-25T21:03:54.420Z,39.03
2022-12-25T21:06:22.204Z,41.83
2022-12-25T21:08:49.117Z,19.75
2022-12-25T21:11:17.614Z,43.80
2022-12-25T21:13:46.105Z,46.38
2022-12-25T21:16:18.327Z,45.10
2022-12-25T21:21:12.764Z,41.17
2022-12-25T21:23:40.462Z,55.83
2022-12-25T21:26:11.677Z,39.58
2022-12-25T21:28:38.799Z,30.50
2022-12-25T21:31:07.416Z,53.58
2022-12-25T21:33:52.541Z,32.58
2022-12-25T21:36:33.564Z,40.25
2022-12-25T21:39:07.161Z,44.47
2022-12-25T21:41:37.745Z,38.78
2022-12-25T21:44:06.355Z,45.13
2022-12-25T21:46:33.246Z,34.15
2022-12-25T21:49:02.203Z,44.63
2022-12-25T21:51:51.331Z,36.80
2022-12-25T21:54:20.890Z,49.38
2022-12-25T21:56:50.215Z,44.88
2022-12-25T21:59:21.609Z,46.55
2022-12-25T22:01:51.768Z,41.75
2022-12-25T22:04:21.559Z,46.75
2022-12-25T22:07:07.909Z,37.47
2022-12-25T22:09:35.116Z,32.42
2022-12-25T22:12:21.360Z,40.88
2022-12-25T22:14:55.787Z,35.60
2022-12-25T22:17:49.810Z,38.22
2022-12-25T22:20:27.704Z,42.60
2022-12-25T22:22:54.582Z,43.55
2022-12-25T22:25:22.382Z,52.47
2022-12-25T22:27:50.552Z,52.70
2022-12-25T22:30:21.703Z,49.35
2022-12-25T22:32:49.079Z,52.47
2022-12-25T22:35:16.912Z,41.63
2022-12-25T22:37:44.879Z,47.28
2022-12-25T22:40:16.699Z,50.33
2022-12-25T22:42:43.829Z,49.13
2022-12-25T22:45:11.613Z,49.47
2022-12-25T22:47:38.789Z,32.30
2022-12-25T22:50:06.645Z,42.70
2022-12-25T22:52:33.470Z,39.78
2022-12-25T22:55:00.362Z,51.55
2022-12-25T22:57:27.200Z,42.25
2022-12-25T22:59:54.163Z,43.50
2022-12-25T23:02:21.275Z,37.20
2022-12-25T23:04:48.255Z,49.88
2022-12-25T23:07:15.670Z,33.97
2022-12-25T23:09:44.446Z,42.47
2022-12-25T23:12:31.734Z,50.10
2022-12-25T23:14:58.908Z,40.75
2022-12-25T23:17:44.343Z,48.10
2022-12-25T23:20:33.201Z,40.95
2022-12-25T23:23:19.294Z,35.13
2022-12-25T23:26:05.252Z,41.35
2022-12-25T23:28:50.489Z,53.85
2022-12-25T23:31:18.049Z,50.17
2022-12-25T23:33:44.862Z,40.60
2022-12-25T23:36:11.685Z,39.25
2022-12-25T23:38:38.474Z,56.15
2022-12-25T23:41:05.680Z,55.25
2022-12-25T23:43:32.472Z,57.05
2022-12-25T23:45:59.482Z,53.78
2022-12-25T23:48:26.425Z,49.50
2022-12-25T23:50:53.315Z,33.58
2022-12-25T23:53:20.201Z,48.10
2022-12-25T23:55:53.330Z,52.55
2022-12-25T23:58:21.911Z,49.53
